RYR88DM EGSS-LFBL
Flight info
| Callsign | RYR88DM |
|---|---|
| Flight time | 1h 12m |
| Altitude | 26000 |
| Route | NUGBO M183 SILVA Q41 COWLY/N0393F230 T71 VAPID N859 DRAKE L151 SITET UN859 VANAD/N0371F190 A34 AMB R10 BALAN |
| Aircraft | B738/M-SDE3FGILRWY/SB1 |
Departure
| Time | 2026-05-07 15:34 |
|---|---|
| Airport | London Stansted Airport (EGSS) |
Arrival
| Time | 2026-05-07 16:46 |
|---|---|
| Airport | Limoges Airport (LFBL) |
| Time | Latitude | Longitude | Altitude | Speed | Heading |
|---|---|---|---|---|---|
| 2026-05-07 15:03 | 51.89263 | 0.25916 | 352 ft | 0 kts | 43° |
| 2026-05-07 15:23 | 51.89262 | 0.25915 | 359 ft | 1 kts | 43° |
| 2026-05-07 15:23 | 51.89246 | 0.25891 | 360 ft | 2 kts | 43° |
| 2026-05-07 15:23 | 51.89229 | 0.25871 | 361 ft | 4 kts | 357° |
| 2026-05-07 15:24 | 51.89211 | 0.25887 | 360 ft | 4 kts | 313° |
| 2026-05-07 15:24 | 51.89201 | 0.25904 | 351 ft | 0 kts | 313° |
| 2026-05-07 15:26 | 51.89203 | 0.25901 | 351 ft | 2 kts | 313° |
| 2026-05-07 15:26 | 51.89226 | 0.25861 | 358 ft | 8 kts | 313° |
| 2026-05-07 15:27 | 51.89277 | 0.25772 | 359 ft | 14 kts | 313° |
| 2026-05-07 15:27 | 51.89354 | 0.25637 | 351 ft | 19 kts | 312° |
| 2026-05-07 15:27 | 51.89305 | 0.25471 | 356 ft | 19 kts | 223° |
| 2026-05-07 15:27 | 51.89199 | 0.25312 | 357 ft | 22 kts | 223° |
| 2026-05-07 15:28 | 51.89073 | 0.25124 | 358 ft | 27 kts | 223° |
| 2026-05-07 15:28 | 51.88930 | 0.24908 | 358 ft | 28 kts | 223° |
| 2026-05-07 15:28 | 51.88793 | 0.24702 | 354 ft | 26 kts | 223° |
| 2026-05-07 15:28 | 51.88663 | 0.24506 | 354 ft | 25 kts | 223° |
| 2026-05-07 15:29 | 51.88529 | 0.24309 | 350 ft | 28 kts | 224° |
| 2026-05-07 15:29 | 51.88388 | 0.24094 | 343 ft | 27 kts | 223° |
| 2026-05-07 15:29 | 51.88257 | 0.23897 | 349 ft | 25 kts | 223° |
| 2026-05-07 15:29 | 51.88130 | 0.23709 | 339 ft | 25 kts | 222° |
| 2026-05-07 15:30 | 51.88008 | 0.23524 | 340 ft | 23 kts | 223° |
| 2026-05-07 15:30 | 51.87890 | 0.23349 | 340 ft | 23 kts | 223° |
| 2026-05-07 15:30 | 51.87774 | 0.23175 | 339 ft | 23 kts | 222° |
| 2026-05-07 15:30 | 51.87772 | 0.22968 | 339 ft | 22 kts | 309° |
| 2026-05-07 15:31 | 51.87704 | 0.22771 | 336 ft | 23 kts | 223° |
| 2026-05-07 15:31 | 51.87587 | 0.22594 | 331 ft | 24 kts | 223° |
| 2026-05-07 15:31 | 51.87469 | 0.22418 | 329 ft | 23 kts | 223° |
| 2026-05-07 15:31 | 51.87401 | 0.22220 | 326 ft | 15 kts | 283° |
| 2026-05-07 15:32 | 51.87438 | 0.22142 | 321 ft | 1 kts | 313° |
| 2026-05-07 15:32 | 51.87438 | 0.22141 | 323 ft | 0 kts | 313° |
| 2026-05-07 15:32 | 51.87446 | 0.22128 | 321 ft | 5 kts | 313° |
| 2026-05-07 15:32 | 51.87504 | 0.22036 | 321 ft | 16 kts | 336° |
| 2026-05-07 15:33 | 51.87615 | 0.22154 | 323 ft | 29 kts | 42° |
| 2026-05-07 15:33 | 51.87937 | 0.22635 | 334 ft | 96 kts | 43° |
| 2026-05-07 15:33 | 51.88581 | 0.23602 | 347 ft | 153 kts | 43° |
| 2026-05-07 15:33 | 51.89432 | 0.24847 | 822 ft | 164 kts | 45° |
| 2026-05-07 15:34 | 51.90275 | 0.26105 | 1568 ft | 170 kts | 45° |
| 2026-05-07 15:34 | 51.91188 | 0.27494 | 1984 ft | 195 kts | 44° |
| 2026-05-07 15:34 | 51.92264 | 0.29068 | 2245 ft | 222 kts | 38° |
| 2026-05-07 15:34 | 51.93742 | 0.30049 | 2533 ft | 244 kts | 7° |
| 2026-05-07 15:35 | 51.95472 | 0.29574 | 2837 ft | 265 kts | 330° |
| 2026-05-07 15:35 | 51.96746 | 0.27496 | 3707 ft | 261 kts | 294° |
| 2026-05-07 15:35 | 51.97231 | 0.24674 | 4584 ft | 261 kts | 278° |
| 2026-05-07 15:35 | 51.97482 | 0.21748 | 5411 ft | 265 kts | 275° |
| 2026-05-07 15:36 | 51.97732 | 0.18760 | 6331 ft | 267 kts | 275° |
| 2026-05-07 15:36 | 51.97996 | 0.15765 | 7119 ft | 271 kts | 276° |
| 2026-05-07 15:36 | 51.98292 | 0.12724 | 7864 ft | 275 kts | 277° |
| 2026-05-07 15:36 | 51.98610 | 0.09661 | 8679 ft | 278 kts | 278° |
| 2026-05-07 15:37 | 51.98915 | 0.06580 | 9459 ft | 281 kts | 272° |
| 2026-05-07 15:37 | 51.98708 | 0.03439 | 10162 ft | 282 kts | 256° |
| 2026-05-07 15:37 | 51.98262 | 0.00281 | 10499 ft | 299 kts | 256° |
| 2026-05-07 15:37 | 51.97800 | -0.03159 | 10656 ft | 322 kts | 256° |
| 2026-05-07 15:38 | 51.97321 | -0.06823 | 10888 ft | 340 kts | 256° |
| 2026-05-07 15:38 | 51.96828 | -0.10623 | 11400 ft | 348 kts | 256° |
| 2026-05-07 15:38 | 51.96327 | -0.14470 | 12078 ft | 351 kts | 256° |
| 2026-05-07 15:38 | 51.95821 | -0.18347 | 12810 ft | 353 kts | 256° |
| 2026-05-07 15:39 | 51.95308 | -0.22273 | 13524 ft | 357 kts | 256° |
| 2026-05-07 15:39 | 51.94789 | -0.26238 | 14193 ft | 362 kts | 256° |
| 2026-05-07 15:39 | 51.94264 | -0.30231 | 14934 ft | 363 kts | 256° |
| 2026-05-07 15:39 | 51.93736 | -0.34245 | 15699 ft | 365 kts | 256° |
| 2026-05-07 15:40 | 51.93203 | -0.38284 | 16442 ft | 368 kts | 257° |
| 2026-05-07 15:40 | 51.92664 | -0.42350 | 17159 ft | 371 kts | 257° |
| 2026-05-07 15:40 | 51.92120 | -0.46452 | 17860 ft | 374 kts | 257° |
| 2026-05-07 15:40 | 51.91570 | -0.50586 | 18531 ft | 377 kts | 257° |
| 2026-05-07 15:41 | 51.91014 | -0.54748 | 19144 ft | 380 kts | 257° |
| 2026-05-07 15:41 | 51.90452 | -0.58937 | 19763 ft | 382 kts | 257° |
| 2026-05-07 15:41 | 51.89885 | -0.63156 | 20367 ft | 385 kts | 257° |
| 2026-05-07 15:41 | 51.89314 | -0.67401 | 20957 ft | 388 kts | 257° |
| 2026-05-07 15:42 | 51.88735 | -0.71686 | 21542 ft | 391 kts | 257° |
| 2026-05-07 15:42 | 51.88152 | -0.75997 | 22130 ft | 394 kts | 257° |
| 2026-05-07 15:42 | 51.87561 | -0.80345 | 22678 ft | 397 kts | 257° |
| 2026-05-07 15:42 | 51.86967 | -0.84715 | 23234 ft | 400 kts | 257° |
| 2026-05-07 15:43 | 51.86364 | -0.89122 | 23745 ft | 402 kts | 257° |
| 2026-05-07 15:43 | 51.85621 | -0.93490 | 24153 ft | 405 kts | 246° |
| 2026-05-07 15:43 | 51.84689 | -0.96108 | 24414 ft | 407 kts | 233° |
| 2026-05-07 15:43 | 51.81870 | -1.00179 | 25098 ft | 410 kts | 212° |
| 2026-05-07 15:44 | 51.80177 | -1.01551 | 25380 ft | 413 kts | 201° |
| 2026-05-07 15:44 | 51.77367 | -1.02628 | 25796 ft | 418 kts | 191° |
| 2026-05-07 15:44 | 51.73539 | -1.03541 | 26317 ft | 422 kts | 190° |
| 2026-05-07 15:44 | 51.70620 | -1.04208 | 26691 ft | 425 kts | 190° |
| 2026-05-07 15:45 | 51.67687 | -1.04922 | 27092 ft | 427 kts | 191° |
| 2026-05-07 15:45 | 51.65696 | -1.05430 | 27374 ft | 429 kts | 191° |
| 2026-05-07 15:45 | 51.62748 | -1.06188 | 27770 ft | 431 kts | 190° |
| 2026-05-07 15:45 | 51.58767 | -1.06559 | 28254 ft | 437 kts | 180° |
| 2026-05-07 15:46 | 51.53644 | -1.06178 | 28846 ft | 442 kts | 180° |
| 2026-05-07 15:46 | 51.50564 | -1.05934 | 29171 ft | 444 kts | 180° |
| 2026-05-07 15:46 | 51.47467 | -1.05715 | 29521 ft | 446 kts | 180° |
| 2026-05-07 15:47 | 51.44360 | -1.05523 | 29856 ft | 448 kts | 180° |
| 2026-05-07 15:47 | 51.41237 | -1.05347 | 30186 ft | 450 kts | 180° |
| 2026-05-07 15:47 | 51.38113 | -1.05173 | 30574 ft | 448 kts | 180° |
| 2026-05-07 15:47 | 51.35078 | -1.05004 | 31005 ft | 446 kts | 180° |
| 2026-05-07 15:48 | 51.32028 | -1.04840 | 31403 ft | 445 kts | 181° |
| 2026-05-07 15:48 | 51.28932 | -1.04677 | 31770 ft | 445 kts | 180° |
| 2026-05-07 15:48 | 51.25855 | -1.04092 | 32132 ft | 447 kts | 171° |
| 2026-05-07 15:48 | 51.22851 | -1.02763 | 32537 ft | 449 kts | 162° |
| 2026-05-07 15:49 | 51.19977 | -1.00767 | 32913 ft | 450 kts | 158° |
| 2026-05-07 15:49 | 51.17142 | -0.98653 | 33266 ft | 450 kts | 158° |
| 2026-05-07 15:49 | 51.14312 | -0.96532 | 33615 ft | 449 kts | 158° |
| 2026-05-07 15:49 | 51.11484 | -0.94433 | 33988 ft | 448 kts | 158° |
| 2026-05-07 15:50 | 51.08649 | -0.92354 | 34257 ft | 449 kts | 159° |
| 2026-05-07 15:50 | 51.05809 | -0.90291 | 34464 ft | 449 kts | 159° |
| 2026-05-07 15:50 | 51.02963 | -0.88237 | 34740 ft | 449 kts | 159° |
| 2026-05-07 15:50 | 51.00123 | -0.86192 | 35035 ft | 448 kts | 159° |
| 2026-05-07 15:51 | 50.97299 | -0.84163 | 35299 ft | 448 kts | 159° |
| 2026-05-07 15:51 | 50.94455 | -0.82120 | 35535 ft | 448 kts | 158° |
| 2026-05-07 15:51 | 50.91615 | -0.80081 | 35771 ft | 449 kts | 158° |
| 2026-05-07 15:51 | 50.88772 | -0.78044 | 36029 ft | 448 kts | 158° |
| 2026-05-07 15:52 | 50.85938 | -0.75989 | 36270 ft | 448 kts | 156° |
| 2026-05-07 15:52 | 50.83243 | -0.73473 | 36487 ft | 452 kts | 148° |
| 2026-05-07 15:52 | 50.80654 | -0.70644 | 36747 ft | 452 kts | 148° |
| 2026-05-07 15:52 | 50.78082 | -0.67804 | 36978 ft | 452 kts | 148° |
| 2026-05-07 15:53 | 50.75496 | -0.64976 | 37183 ft | 452 kts | 148° |
| 2026-05-07 15:53 | 50.72903 | -0.62178 | 37413 ft | 452 kts | 148° |
| 2026-05-07 15:53 | 50.70303 | -0.59398 | 37637 ft | 451 kts | 148° |
| 2026-05-07 15:53 | 50.67696 | -0.56628 | 37855 ft | 451 kts | 149° |
| 2026-05-07 15:54 | 50.65085 | -0.53887 | 38045 ft | 452 kts | 149° |
| 2026-05-07 15:54 | 50.59834 | -0.48368 | 38059 ft | 454 kts | 148° |
| 2026-05-07 15:55 | 50.54614 | -0.42852 | 38046 ft | 450 kts | 148° |
| 2026-05-07 15:55 | 50.49438 | -0.37389 | 38057 ft | 447 kts | 149° |
| 2026-05-07 15:56 | 50.44287 | -0.31982 | 38064 ft | 444 kts | 149° |
| 2026-05-07 15:56 | 50.39157 | -0.26610 | 38061 ft | 443 kts | 149° |
| 2026-05-07 15:57 | 50.34035 | -0.21259 | 38038 ft | 443 kts | 149° |
| 2026-05-07 15:57 | 50.28899 | -0.15908 | 38063 ft | 445 kts | 149° |
| 2026-05-07 15:58 | 50.23738 | -0.10546 | 38065 ft | 447 kts | 149° |
| 2026-05-07 15:58 | 50.18391 | -0.05638 | 38056 ft | 445 kts | 159° |
| 2026-05-07 15:59 | 50.12684 | -0.01855 | 38058 ft | 447 kts | 159° |
| 2026-05-07 15:59 | 50.06899 | 0.01435 | 38071 ft | 445 kts | 168° |
| 2026-05-07 16:00 | 50.00869 | 0.03722 | 38058 ft | 446 kts | 169° |
| 2026-05-07 16:00 | 49.94823 | 0.05983 | 38041 ft | 447 kts | 168° |
| 2026-05-07 16:01 | 49.88783 | 0.08317 | 38055 ft | 448 kts | 168° |
| 2026-05-07 16:01 | 49.82747 | 0.10682 | 38043 ft | 447 kts | 168° |
| 2026-05-07 16:02 | 49.76738 | 0.13020 | 38046 ft | 447 kts | 168° |
| 2026-05-07 16:02 | 49.70713 | 0.15364 | 38042 ft | 446 kts | 168° |
| 2026-05-07 16:03 | 49.64707 | 0.17726 | 38047 ft | 445 kts | 168° |
| 2026-05-07 16:03 | 49.58728 | 0.20161 | 38045 ft | 444 kts | 167° |
| 2026-05-07 16:04 | 49.52763 | 0.22588 | 38053 ft | 443 kts | 168° |
| 2026-05-07 16:04 | 49.46811 | 0.24992 | 38018 ft | 442 kts | 168° |
| 2026-05-07 16:05 | 49.40864 | 0.27383 | 38019 ft | 442 kts | 168° |
| 2026-05-07 16:05 | 49.34923 | 0.29768 | 38021 ft | 441 kts | 168° |
| 2026-05-07 16:06 | 49.28982 | 0.32161 | 38019 ft | 441 kts | 167° |
| 2026-05-07 16:06 | 49.23060 | 0.34652 | 38018 ft | 442 kts | 167° |
| 2026-05-07 16:07 | 49.17131 | 0.37163 | 38024 ft | 442 kts | 167° |
| 2026-05-07 16:07 | 49.11202 | 0.39658 | 38020 ft | 442 kts | 167° |
| 2026-05-07 16:08 | 49.05260 | 0.42140 | 38012 ft | 443 kts | 167° |
| 2026-05-07 16:08 | 48.99315 | 0.44617 | 38007 ft | 443 kts | 167° |
| 2026-05-07 16:09 | 48.93404 | 0.47075 | 38020 ft | 443 kts | 167° |
| 2026-05-07 16:09 | 48.87446 | 0.49546 | 38026 ft | 444 kts | 167° |
| 2026-05-07 16:10 | 48.81478 | 0.52016 | 38016 ft | 445 kts | 167° |
| 2026-05-07 16:10 | 48.75497 | 0.54445 | 38018 ft | 445 kts | 168° |
| 2026-05-07 16:11 | 48.69492 | 0.56776 | 38021 ft | 446 kts | 168° |
| 2026-05-07 16:11 | 48.63484 | 0.59107 | 38005 ft | 446 kts | 168° |
| 2026-05-07 16:12 | 48.57473 | 0.61449 | 38017 ft | 446 kts | 168° |
| 2026-05-07 16:12 | 48.51460 | 0.63787 | 38022 ft | 447 kts | 168° |
| 2026-05-07 16:13 | 48.45453 | 0.66213 | 38017 ft | 447 kts | 167° |
| 2026-05-07 16:13 | 48.39459 | 0.68669 | 38018 ft | 446 kts | 168° |
| 2026-05-07 16:14 | 48.33473 | 0.71099 | 38015 ft | 445 kts | 168° |
| 2026-05-07 16:14 | 48.27504 | 0.73512 | 38011 ft | 444 kts | 168° |
| 2026-05-07 16:15 | 48.21549 | 0.75892 | 38003 ft | 443 kts | 168° |
| 2026-05-07 16:15 | 48.15591 | 0.78233 | 38008 ft | 442 kts | 168° |
| 2026-05-07 16:16 | 48.09640 | 0.80566 | 38015 ft | 442 kts | 168° |
| 2026-05-07 16:16 | 48.03691 | 0.82896 | 38004 ft | 442 kts | 168° |
| 2026-05-07 16:17 | 47.97741 | 0.85226 | 38003 ft | 442 kts | 168° |
| 2026-05-07 16:17 | 47.91782 | 0.87554 | 38016 ft | 442 kts | 168° |
| 2026-05-07 16:18 | 47.85822 | 0.89874 | 38001 ft | 443 kts | 168° |
| 2026-05-07 16:18 | 47.79857 | 0.92188 | 38000 ft | 443 kts | 168° |
| 2026-05-07 16:19 | 47.73881 | 0.94497 | 37968 ft | 444 kts | 168° |
| 2026-05-07 16:19 | 47.70905 | 0.95645 | 37461 ft | 450 kts | 168° |
| 2026-05-07 16:19 | 47.67884 | 0.96810 | 36922 ft | 448 kts | 168° |
| 2026-05-07 16:19 | 47.64878 | 0.97971 | 36376 ft | 446 kts | 168° |
| 2026-05-07 16:20 | 47.61879 | 0.99126 | 35780 ft | 445 kts | 168° |
| 2026-05-07 16:20 | 47.58841 | 1.00294 | 35131 ft | 446 kts | 169° |
| 2026-05-07 16:20 | 47.55877 | 1.01434 | 34512 ft | 446 kts | 169° |
| 2026-05-07 16:20 | 47.52865 | 1.02588 | 33845 ft | 447 kts | 169° |
| 2026-05-07 16:21 | 47.49855 | 1.03740 | 33269 ft | 444 kts | 169° |
| 2026-05-07 16:21 | 47.46879 | 1.04880 | 32778 ft | 440 kts | 169° |
| 2026-05-07 16:21 | 47.43927 | 1.05958 | 32319 ft | 434 kts | 172° |
| 2026-05-07 16:21 | 47.40965 | 1.06482 | 31888 ft | 424 kts | 182° |
| 2026-05-07 16:22 | 47.38036 | 1.06425 | 31455 ft | 418 kts | 184° |
| 2026-05-07 16:22 | 47.35138 | 1.06316 | 31007 ft | 415 kts | 184° |
| 2026-05-07 16:22 | 47.32265 | 1.06210 | 30573 ft | 411 kts | 184° |
| 2026-05-07 16:22 | 47.29415 | 1.06119 | 30137 ft | 408 kts | 184° |
| 2026-05-07 16:23 | 47.26585 | 1.06041 | 29646 ft | 405 kts | 184° |
| 2026-05-07 16:23 | 47.23777 | 1.05971 | 29170 ft | 401 kts | 184° |
| 2026-05-07 16:23 | 47.21000 | 1.05908 | 28720 ft | 397 kts | 183° |
| 2026-05-07 16:23 | 47.18252 | 1.05847 | 28271 ft | 393 kts | 183° |
| 2026-05-07 16:24 | 47.15531 | 1.05788 | 27828 ft | 389 kts | 183° |
| 2026-05-07 16:24 | 47.12838 | 1.05728 | 27389 ft | 385 kts | 183° |
| 2026-05-07 16:24 | 47.10167 | 1.05669 | 26948 ft | 382 kts | 183° |
| 2026-05-07 16:24 | 47.07515 | 1.05610 | 26520 ft | 380 kts | 183° |
| 2026-05-07 16:25 | 47.04885 | 1.05550 | 26096 ft | 377 kts | 183° |
| 2026-05-07 16:25 | 47.02269 | 1.05491 | 25670 ft | 374 kts | 183° |
| 2026-05-07 16:25 | 46.99676 | 1.05399 | 25240 ft | 372 kts | 183° |
| 2026-05-07 16:25 | 46.97093 | 1.05284 | 24822 ft | 370 kts | 183° |
| 2026-05-07 16:26 | 46.94530 | 1.05168 | 24393 ft | 368 kts | 183° |
| 2026-05-07 16:26 | 46.91979 | 1.05058 | 23986 ft | 366 kts | 183° |
| 2026-05-07 16:26 | 46.89442 | 1.04951 | 23577 ft | 364 kts | 183° |
| 2026-05-07 16:26 | 46.87768 | 1.04882 | 23262 ft | 363 kts | 183° |
| 2026-05-07 16:27 | 46.84392 | 1.04736 | 22640 ft | 362 kts | 183° |
| 2026-05-07 16:27 | 46.81886 | 1.04625 | 22224 ft | 359 kts | 183° |
| 2026-05-07 16:27 | 46.79395 | 1.04515 | 21807 ft | 357 kts | 183° |
| 2026-05-07 16:27 | 46.76915 | 1.04407 | 21389 ft | 356 kts | 182° |
| 2026-05-07 16:28 | 46.74449 | 1.04298 | 20981 ft | 354 kts | 182° |
| 2026-05-07 16:28 | 46.71999 | 1.04191 | 20567 ft | 351 kts | 182° |
| 2026-05-07 16:28 | 46.69566 | 1.04085 | 20169 ft | 349 kts | 182° |
| 2026-05-07 16:28 | 46.67151 | 1.03979 | 19779 ft | 346 kts | 182° |
| 2026-05-07 16:29 | 46.64753 | 1.03874 | 19395 ft | 344 kts | 182° |
| 2026-05-07 16:29 | 46.62371 | 1.03771 | 19009 ft | 341 kts | 182° |
| 2026-05-07 16:29 | 46.60003 | 1.03667 | 18624 ft | 340 kts | 182° |
| 2026-05-07 16:29 | 46.57648 | 1.03563 | 18233 ft | 338 kts | 182° |
| 2026-05-07 16:30 | 46.55304 | 1.03461 | 17791 ft | 336 kts | 182° |
| 2026-05-07 16:30 | 46.53759 | 1.03394 | 17516 ft | 334 kts | 182° |
| 2026-05-07 16:30 | 46.51445 | 1.03295 | 17127 ft | 332 kts | 182° |
| 2026-05-07 16:30 | 46.49155 | 1.03242 | 16834 ft | 327 kts | 181° |
| 2026-05-07 16:31 | 46.46888 | 1.03220 | 16448 ft | 325 kts | 181° |
| 2026-05-07 16:31 | 46.44637 | 1.03204 | 16076 ft | 321 kts | 181° |
| 2026-05-07 16:31 | 46.42415 | 1.03198 | 15706 ft | 318 kts | 181° |
| 2026-05-07 16:31 | 46.39489 | 1.03211 | 15219 ft | 317 kts | 181° |
| 2026-05-07 16:32 | 46.37284 | 1.03197 | 14856 ft | 316 kts | 182° |
| 2026-05-07 16:32 | 46.35797 | 1.03174 | 14595 ft | 317 kts | 182° |
| 2026-05-07 16:32 | 46.33593 | 1.03137 | 14226 ft | 316 kts | 182° |
| 2026-05-07 16:32 | 46.31395 | 1.03104 | 13855 ft | 316 kts | 182° |
| 2026-05-07 16:33 | 46.29193 | 1.03073 | 13452 ft | 316 kts | 182° |
| 2026-05-07 16:33 | 46.26994 | 1.03046 | 13047 ft | 316 kts | 182° |
| 2026-05-07 16:33 | 46.24800 | 1.03020 | 12663 ft | 315 kts | 182° |
| 2026-05-07 16:33 | 46.22605 | 1.02996 | 12281 ft | 315 kts | 181° |
| 2026-05-07 16:34 | 46.20412 | 1.02973 | 11906 ft | 315 kts | 181° |
| 2026-05-07 16:34 | 46.18225 | 1.02950 | 11534 ft | 315 kts | 181° |
| 2026-05-07 16:34 | 46.16035 | 1.02926 | 11151 ft | 314 kts | 181° |
| 2026-05-07 16:34 | 46.13853 | 1.02907 | 10779 ft | 313 kts | 181° |
| 2026-05-07 16:35 | 46.11682 | 1.02884 | 10477 ft | 311 kts | 181° |
| 2026-05-07 16:35 | 46.09553 | 1.02859 | 10358 ft | 302 kts | 181° |
| 2026-05-07 16:35 | 46.07480 | 1.02837 | 10220 ft | 294 kts | 181° |
| 2026-05-07 16:35 | 46.05471 | 1.02816 | 10086 ft | 282 kts | 181° |
| 2026-05-07 16:36 | 46.03553 | 1.02795 | 9963 ft | 269 kts | 181° |
| 2026-05-07 16:36 | 46.01713 | 1.02777 | 9703 ft | 268 kts | 181° |
| 2026-05-07 16:36 | 45.99818 | 1.02754 | 9428 ft | 269 kts | 181° |
| 2026-05-07 16:36 | 45.97956 | 1.02735 | 9156 ft | 268 kts | 180° |
| 2026-05-07 16:37 | 45.96092 | 1.02714 | 8877 ft | 268 kts | 181° |
| 2026-05-07 16:37 | 45.94280 | 1.02292 | 8589 ft | 268 kts | 196° |
| 2026-05-07 16:37 | 45.92513 | 1.01455 | 8322 ft | 268 kts | 199° |
| 2026-05-07 16:37 | 45.90759 | 1.00555 | 8061 ft | 267 kts | 199° |
| 2026-05-07 16:38 | 45.89003 | 0.99655 | 7762 ft | 269 kts | 198° |
| 2026-05-07 16:38 | 45.87224 | 0.98761 | 7452 ft | 273 kts | 198° |
| 2026-05-07 16:38 | 45.85424 | 0.97873 | 7145 ft | 274 kts | 198° |
| 2026-05-07 16:38 | 45.83612 | 0.96988 | 6861 ft | 275 kts | 198° |
| 2026-05-07 16:39 | 45.81821 | 0.96121 | 6572 ft | 268 kts | 198° |
| 2026-05-07 16:39 | 45.80075 | 0.95279 | 6274 ft | 261 kts | 197° |
| 2026-05-07 16:39 | 45.78385 | 0.94468 | 6144 ft | 251 kts | 198° |
| 2026-05-07 16:39 | 45.76751 | 0.93684 | 6022 ft | 244 kts | 197° |
| 2026-05-07 16:40 | 45.75165 | 0.92925 | 5936 ft | 237 kts | 197° |
| 2026-05-07 16:40 | 45.73619 | 0.92186 | 5818 ft | 231 kts | 198° |
| 2026-05-07 16:40 | 45.72078 | 0.91733 | 5707 ft | 223 kts | 173° |
| 2026-05-07 16:40 | 45.70684 | 0.92488 | 5591 ft | 217 kts | 141° |
| 2026-05-07 16:41 | 45.69721 | 0.94125 | 5392 ft | 217 kts | 116° |
| 2026-05-07 16:41 | 45.69268 | 0.96165 | 5345 ft | 215 kts | 104° |
| 2026-05-07 16:41 | 45.68931 | 0.98210 | 5098 ft | 206 kts | 104° |
| 2026-05-07 16:41 | 45.68684 | 1.00186 | 4868 ft | 200 kts | 88° |
| 2026-05-07 16:42 | 45.69211 | 1.01958 | 4682 ft | 197 kts | 43° |
| 2026-05-07 16:42 | 45.70320 | 1.03112 | 4528 ft | 200 kts | 37° |
| 2026-05-07 16:42 | 45.71442 | 1.04243 | 4326 ft | 194 kts | 36° |
| 2026-05-07 16:42 | 45.72544 | 1.05311 | 4110 ft | 189 kts | 34° |
| 2026-05-07 16:43 | 45.73621 | 1.06330 | 3881 ft | 182 kts | 36° |
| 2026-05-07 16:43 | 45.74661 | 1.07312 | 3729 ft | 178 kts | 35° |
| 2026-05-07 16:43 | 45.75697 | 1.08287 | 3537 ft | 179 kts | 35° |
| 2026-05-07 16:43 | 45.76733 | 1.09260 | 3304 ft | 177 kts | 34° |
| 2026-05-07 16:44 | 45.77757 | 1.10220 | 3067 ft | 174 kts | 35° |
| 2026-05-07 16:44 | 45.78740 | 1.11144 | 2846 ft | 164 kts | 36° |
| 2026-05-07 16:44 | 45.79688 | 1.12036 | 2632 ft | 162 kts | 34° |
| 2026-05-07 16:44 | 45.80612 | 1.12903 | 2438 ft | 156 kts | 34° |
| 2026-05-07 16:45 | 45.81507 | 1.13745 | 2220 ft | 151 kts | 35° |
| 2026-05-07 16:45 | 45.82385 | 1.14564 | 2029 ft | 152 kts | 34° |
| 2026-05-07 16:45 | 45.83261 | 1.15394 | 1844 ft | 151 kts | 36° |
| 2026-05-07 16:45 | 45.84154 | 1.16226 | 1632 ft | 154 kts | 35° |
| 2026-05-07 16:46 | 45.85055 | 1.17078 | 1395 ft | 156 kts | 39° |
| 2026-05-07 16:46 | 45.85938 | 1.17898 | 1314 ft | 138 kts | 36° |
| 2026-05-07 16:46 | 45.86550 | 1.18475 | 1311 ft | 76 kts | 33° |
| 2026-05-07 16:46 | 45.86869 | 1.18775 | 1309 ft | 43 kts | 33° |
| 2026-05-07 16:47 | 45.87034 | 1.18934 | 1309 ft | 22 kts | 41° |
| 2026-05-07 16:47 | 45.87109 | 1.19035 | 1308 ft | 10 kts | 326° |
| 2026-05-07 16:47 | 45.87081 | 1.18966 | 1309 ft | 11 kts | 207° |
| 2026-05-07 16:47 | 45.86997 | 1.18893 | 1309 ft | 18 kts | 213° |
| 2026-05-07 16:48 | 45.86870 | 1.18774 | 1309 ft | 25 kts | 213° |
| 2026-05-07 16:48 | 45.86713 | 1.18627 | 1310 ft | 29 kts | 213° |
| 2026-05-07 16:48 | 45.86548 | 1.18474 | 1311 ft | 27 kts | 213° |
| 2026-05-07 16:48 | 45.86396 | 1.18330 | 1311 ft | 25 kts | 213° |
| 2026-05-07 16:49 | 45.86254 | 1.18197 | 1310 ft | 24 kts | 213° |
| 2026-05-07 16:49 | 45.86132 | 1.18083 | 1311 ft | 8 kts | 213° |
| 2026-05-07 16:49 | 45.86096 | 1.18027 | 1311 ft | 8 kts | 250° |
| 2026-05-07 16:49 | 45.86120 | 1.17937 | 1313 ft | 11 kts | 303° |
| 2026-05-07 16:50 | 45.86137 | 1.17900 | 1313 ft | 0 kts | 303° |
| 2026-05-07 16:51 | 45.86137 | 1.17899 | 1313 ft | 0 kts | 303° |
| 2026-05-07 16:51 | 45.86148 | 1.17867 | 1313 ft | 7 kts | 287° |
| 2026-05-07 16:51 | 45.86167 | 1.17791 | 1314 ft | 10 kts | 302° |
| 2026-05-07 16:52 | 45.86190 | 1.17760 | 1314 ft | 3 kts | 10° |
| 2026-05-07 16:52 | 45.86202 | 1.17781 | 1314 ft | 3 kts | 64° |
| 2026-05-07 16:52 | 45.86204 | 1.17795 | 1314 ft | 0 kts | 74° |